sensor_id;sensor_type;location;lat;lon;timestamp;P1;durP1;ratioP1;P2;durP2;ratioP2
75459;SDS011;64039;53.060;9.342;2023-07-31T00:01:11;8.45;;;1.58;;
75459;SDS011;64039;53.060;9.342;2023-07-31T00:03:36;8.48;;;1.50;;
75459;SDS011;64039;53.060;9.342;2023-07-31T00:06:01;5.45;;;1.75;;
75459;SDS011;64039;53.060;9.342;2023-07-31T00:08:27;9.32;;;2.05;;
75459;SDS011;64039;53.060;9.342;2023-07-31T00:10:52;7.55;;;1.60;;
75459;SDS011;64039;53.060;9.342;2023-07-31T00:13:18;6.75;;;1.80;;
75459;SDS011;64039;53.060;9.342;2023-07-31T00:15:44;3.83;;;1.48;;
75459;SDS011;64039;53.060;9.342;2023-07-31T00:18:09;5.20;;;1.80;;
75459;SDS011;64039;53.060;9.342;2023-07-31T00:20:35;6.63;;;1.90;;
75459;SDS011;64039;53.060;9.342;2023-07-31T00:23:00;6.30;;;1.52;;
75459;SDS011;64039;53.060;9.342;2023-07-31T00:25:25;10.32;;;2.15;;
75459;SDS011;64039;53.060;9.342;2023-07-31T00:27:51;10.35;;;1.90;;
75459;SDS011;64039;53.060;9.342;2023-07-31T00:30:16;4.47;;;1.50;;
75459;SDS011;64039;53.060;9.342;2023-07-31T00:32:42;6.78;;;1.60;;
75459;SDS011;64039;53.060;9.342;2023-07-31T00:35:07;8.32;;;1.70;;
75459;SDS011;64039;53.060;9.342;2023-07-31T00:37:33;5.82;;;1.60;;
75459;SDS011;64039;53.060;9.342;2023-07-31T00:39:58;6.68;;;1.58;;
75459;SDS011;64039;53.060;9.342;2023-07-31T00:42:24;8.23;;;1.90;;
75459;SDS011;64039;53.060;9.342;2023-07-31T00:44:49;3.92;;;1.45;;
75459;SDS011;64039;53.060;9.342;2023-07-31T00:47:15;4.45;;;1.52;;
75459;SDS011;64039;53.060;9.342;2023-07-31T00:49:41;4.63;;;1.60;;
75459;SDS011;64039;53.060;9.342;2023-07-31T00:52:07;7.40;;;1.50;;
75459;SDS011;64039;53.060;9.342;2023-07-31T00:54:32;5.43;;;2.00;;
75459;SDS011;64039;53.060;9.342;2023-07-31T00:56:58;5.38;;;1.80;;
75459;SDS011;64039;53.060;9.342;2023-07-31T00:59:25;8.25;;;1.63;;
75459;SDS011;64039;53.060;9.342;2023-07-31T01:01:50;3.58;;;1.75;;
75459;SDS011;64039;53.060;9.342;2023-07-31T01:04:17;5.22;;;1.75;;
75459;SDS011;64039;53.060;9.342;2023-07-31T01:06:55;4.75;;;1.55;;
75459;SDS011;64039;53.060;9.342;2023-07-31T01:12:18;4.85;;;1.63;;
75459;SDS011;64039;53.060;9.342;2023-07-31T01:14:52;7.82;;;1.83;;
75459;SDS011;64039;53.060;9.342;2023-07-31T01:17:27;6.10;;;1.60;;
75459;SDS011;64039;53.060;9.342;2023-07-31T01:19:53;4.57;;;1.45;;
75459;SDS011;64039;53.060;9.342;2023-07-31T01:23:08;3.50;;;1.40;;
75459;SDS011;64039;53.060;9.342;2023-07-31T01:28:29;4.40;;;2.00;;
75459;SDS011;64039;53.060;9.342;2023-07-31T01:31:10;3.53;;;1.67;;
75459;SDS011;64039;53.060;9.342;2023-07-31T01:33:39;7.75;;;1.80;;
75459;SDS011;64039;53.060;9.342;2023-07-31T01:36:05;5.65;;;1.48;;
75459;SDS011;64039;53.060;9.342;2023-07-31T01:38:32;6.80;;;1.58;;
75459;SDS011;64039;53.060;9.342;2023-07-31T01:40:58;5.93;;;1.85;;
75459;SDS011;64039;53.060;9.342;2023-07-31T01:43:24;3.70;;;1.70;;
75459;SDS011;64039;53.060;9.342;2023-07-31T01:45:49;3.95;;;1.70;;
75459;SDS011;64039;53.060;9.342;2023-07-31T01:48:15;5.90;;;1.65;;
75459;SDS011;64039;53.060;9.342;2023-07-31T01:50:40;4.47;;;1.50;;
75459;SDS011;64039;53.060;9.342;2023-07-31T01:53:06;7.18;;;1.83;;
75459;SDS011;64039;53.060;9.342;2023-07-31T01:55:31;5.18;;;1.60;;
75459;SDS011;64039;53.060;9.342;2023-07-31T01:57:57;6.25;;;1.85;;
75459;SDS011;64039;53.060;9.342;2023-07-31T02:00:22;4.43;;;1.52;;
75459;SDS011;64039;53.060;9.342;2023-07-31T02:02:48;5.43;;;1.95;;
75459;SDS011;64039;53.060;9.342;2023-07-31T02:05:13;6.80;;;1.77;;
75459;SDS011;64039;53.060;9.342;2023-07-31T02:07:39;3.85;;;1.58;;
75459;SDS011;64039;53.060;9.342;2023-07-31T02:10:04;3.08;;;1.67;;
75459;SDS011;64039;53.060;9.342;2023-07-31T02:12:30;4.90;;;1.77;;
75459;SDS011;64039;53.060;9.342;2023-07-31T02:14:57;5.18;;;1.70;;
75459;SDS011;64039;53.060;9.342;2023-07-31T02:17:22;5.00;;;1.90;;
75459;SDS011;64039;53.060;9.342;2023-07-31T02:19:48;6.68;;;1.63;;
75459;SDS011;64039;53.060;9.342;2023-07-31T02:22:13;2.75;;;1.55;;
75459;SDS011;64039;53.060;9.342;2023-07-31T02:24:39;3.45;;;1.85;;
75459;SDS011;64039;53.060;9.342;2023-07-31T02:27:04;4.28;;;2.33;;
75459;SDS011;64039;53.060;9.342;2023-07-31T02:29:30;4.70;;;2.08;;
75459;SDS011;64039;53.060;9.342;2023-07-31T02:31:55;3.70;;;1.92;;
75459;SDS011;64039;53.060;9.342;2023-07-31T02:34:21;5.30;;;2.70;;
75459;SDS011;64039;53.060;9.342;2023-07-31T02:36:46;7.60;;;2.72;;
75459;SDS011;64039;53.060;9.342;2023-07-31T02:39:12;4.68;;;3.20;;
75459;SDS011;64039;53.060;9.342;2023-07-31T02:41:37;6.30;;;2.88;;
75459;SDS011;64039;53.060;9.342;2023-07-31T02:44:03;6.05;;;3.20;;
75459;SDS011;64039;53.060;9.342;2023-07-31T02:46:28;4.93;;;3.40;;
75459;SDS011;64039;53.060;9.342;2023-07-31T02:48:54;5.60;;;2.90;;
75459;SDS011;64039;53.060;9.342;2023-07-31T02:51:19;7.63;;;3.63;;
75459;SDS011;64039;53.060;9.342;2023-07-31T02:53:46;10.90;;;6.18;;
75459;SDS011;64039;53.060;9.342;2023-07-31T02:56:13;4.55;;;3.65;;
75459;SDS011;64039;53.060;9.342;2023-07-31T02:58:38;8.82;;;6.72;;
75459;SDS011;64039;53.060;9.342;2023-07-31T03:01:04;5.93;;;3.58;;
75459;SDS011;64039;53.060;9.342;2023-07-31T03:03:29;5.95;;;3.60;;
75459;SDS011;64039;53.060;9.342;2023-07-31T03:05:55;5.88;;;3.70;;
75459;SDS011;64039;53.060;9.342;2023-07-31T03:08:20;6.43;;;3.72;;
75459;SDS011;64039;53.060;9.342;2023-07-31T03:10:46;4.13;;;3.33;;
75459;SDS011;64039;53.060;9.342;2023-07-31T03:13:11;7.43;;;3.72;;
75459;SDS011;64039;53.060;9.342;2023-07-31T03:15:37;6.70;;;3.78;;
75459;SDS011;64039;53.060;9.342;2023-07-31T03:18:02;6.68;;;4.38;;
75459;SDS011;64039;53.060;9.342;2023-07-31T03:20:28;5.80;;;3.78;;
75459;SDS011;64039;53.060;9.342;2023-07-31T03:22:53;6.38;;;4.25;;
75459;SDS011;64039;53.060;9.342;2023-07-31T03:25:19;6.07;;;4.07;;
75459;SDS011;64039;53.060;9.342;2023-07-31T03:27:44;6.68;;;4.63;;
75459;SDS011;64039;53.060;9.342;2023-07-31T03:30:10;5.35;;;3.78;;
75459;SDS011;64039;53.060;9.342;2023-07-31T03:32:35;6.50;;;4.70;;
75459;SDS011;64039;53.060;9.342;2023-07-31T03:35:01;5.53;;;4.00;;
75459;SDS011;64039;53.060;9.342;2023-07-31T03:37:26;4.50;;;3.28;;
75459;SDS011;64039;53.060;9.342;2023-07-31T03:39:52;4.43;;;3.30;;
75459;SDS011;64039;53.060;9.342;2023-07-31T03:42:17;10.23;;;3.83;;
75459;SDS011;64039;53.060;9.342;2023-07-31T03:44:43;5.90;;;3.67;;
75459;SDS011;64039;53.060;9.342;2023-07-31T03:47:08;7.72;;;4.65;;
75459;SDS011;64039;53.060;9.342;2023-07-31T03:49:34;7.60;;;4.85;;
75459;SDS011;64039;53.060;9.342;2023-07-31T03:51:59;14.40;;;6.43;;
75459;SDS011;64039;53.060;9.342;2023-07-31T03:54:25;5.80;;;4.00;;
75459;SDS011;64039;53.060;9.342;2023-07-31T03:56:50;8.45;;;6.03;;
75459;SDS011;64039;53.060;9.342;2023-07-31T03:59:16;8.70;;;6.20;;
75459;SDS011;64039;53.060;9.342;2023-07-31T04:01:41;20.25;;;13.52;;
75459;SDS011;64039;53.060;9.342;2023-07-31T04:04:07;15.05;;;8.57;;
75459;SDS011;64039;53.060;9.342;2023-07-31T04:06:32;5.95;;;4.25;;
75459;SDS011;64039;53.060;9.342;2023-07-31T04:08:58;6.70;;;4.43;;
75459;SDS011;64039;53.060;9.342;2023-07-31T04:11:23;8.35;;;4.80;;
75459;SDS011;64039;53.060;9.342;2023-07-31T04:13:49;6.70;;;4.75;;
75459;SDS011;64039;53.060;9.342;2023-07-31T04:16:14;6.90;;;5.07;;
75459;SDS011;64039;53.060;9.342;2023-07-31T04:18:39;6.57;;;5.10;;
75459;SDS011;64039;53.060;9.342;2023-07-31T04:21:05;7.75;;;5.47;;
75459;SDS011;64039;53.060;9.342;2023-07-31T04:23:30;7.75;;;5.35;;
75459;SDS011;64039;53.060;9.342;2023-07-31T04:25:56;7.15;;;5.25;;
75459;SDS011;64039;53.060;9.342;2023-07-31T04:28:21;8.38;;;5.50;;
75459;SDS011;64039;53.060;9.342;2023-07-31T04:30:47;7.45;;;6.25;;
75459;SDS011;64039;53.060;9.342;2023-07-31T04:33:13;7.50;;;5.88;;
75459;SDS011;64039;53.060;9.342;2023-07-31T04:35:38;7.15;;;5.38;;
75459;SDS011;64039;53.060;9.342;2023-07-31T04:38:04;6.40;;;5.15;;
75459;SDS011;64039;53.060;9.342;2023-07-31T04:40:31;6.35;;;5.38;;
75459;SDS011;64039;53.060;9.342;2023-07-31T04:42:58;6.05;;;4.97;;
75459;SDS011;64039;53.060;9.342;2023-07-31T04:45:23;6.85;;;5.35;;
75459;SDS011;64039;53.060;9.342;2023-07-31T04:47:49;6.47;;;5.30;;
75459;SDS011;64039;53.060;9.342;2023-07-31T04:50:14;9.95;;;7.53;;
75459;SDS011;64039;53.060;9.342;2023-07-31T04:52:40;5.70;;;4.78;;
75459;SDS011;64039;53.060;9.342;2023-07-31T04:55:06;9.45;;;7.15;;
75459;SDS011;64039;53.060;9.342;2023-07-31T04:57:31;7.25;;;5.57;;
75459;SDS011;64039;53.060;9.342;2023-07-31T04:59:57;6.53;;;5.18;;
75459;SDS011;64039;53.060;9.342;2023-07-31T05:02:22;4.72;;;3.75;;
75459;SDS011;64039;53.060;9.342;2023-07-31T05:04:48;4.03;;;3.63;;
75459;SDS011;64039;53.060;9.342;2023-07-31T05:07:13;4.15;;;3.10;;
75459;SDS011;64039;53.060;9.342;2023-07-31T05:09:39;4.28;;;3.40;;
75459;SDS011;64039;53.060;9.342;2023-07-31T05:12:04;4.30;;;3.22;;
75459;SDS011;64039;53.060;9.342;2023-07-31T05:14:30;5.60;;;3.80;;
75459;SDS011;64039;53.060;9.342;2023-07-31T05:16:56;3.65;;;3.15;;
75459;SDS011;64039;53.060;9.342;2023-07-31T05:19:21;3.25;;;2.92;;
75459;SDS011;64039;53.060;9.342;2023-07-31T05:21:47;5.50;;;3.10;;
75459;SDS011;64039;53.060;9.342;2023-07-31T05:24:12;3.25;;;2.75;;
75459;SDS011;64039;53.060;9.342;2023-07-31T05:26:38;3.85;;;2.97;;
75459;SDS011;64039;53.060;9.342;2023-07-31T05:29:04;3.10;;;2.80;;
75459;SDS011;64039;53.060;9.342;2023-07-31T05:31:29;3.97;;;3.20;;
75459;SDS011;64039;53.060;9.342;2023-07-31T05:33:54;3.50;;;2.75;;
75459;SDS011;64039;53.060;9.342;2023-07-31T05:36:20;4.40;;;2.60;;
75459;SDS011;64039;53.060;9.342;2023-07-31T05:38:45;3.70;;;2.60;;
75459;SDS011;64039;53.060;9.342;2023-07-31T05:41:14;4.32;;;3.30;;
75459;SDS011;64039;53.060;9.342;2023-07-31T05:43:40;3.25;;;2.90;;
75459;SDS011;64039;53.060;9.342;2023-07-31T05:46:06;3.10;;;2.80;;
75459;SDS011;64039;53.060;9.342;2023-07-31T05:48:32;3.17;;;2.38;;
75459;SDS011;64039;53.060;9.342;2023-07-31T05:50:59;2.42;;;2.22;;
75459;SDS011;64039;53.060;9.342;2023-07-31T05:53:24;2.42;;;2.17;;
75459;SDS011;64039;53.060;9.342;2023-07-31T05:55:50;3.15;;;2.20;;
75459;SDS011;64039;53.060;9.342;2023-07-31T05:58:15;2.58;;;2.13;;
75459;SDS011;64039;53.060;9.342;2023-07-31T06:00:41;3.17;;;1.75;;
75459;SDS011;64039;53.060;9.342;2023-07-31T06:03:06;2.20;;;1.38;;
75459;SDS011;64039;53.060;9.342;2023-07-31T06:05:32;2.30;;;1.63;;
75459;SDS011;64039;53.060;9.342;2023-07-31T06:07:57;2.72;;;1.67;;
75459;SDS011;64039;53.060;9.342;2023-07-31T06:10:23;2.47;;;1.50;;
75459;SDS011;64039;53.060;9.342;2023-07-31T06:12:48;2.13;;;1.42;;
75459;SDS011;64039;53.060;9.342;2023-07-31T06:15:14;2.10;;;1.70;;
75459;SDS011;64039;53.060;9.342;2023-07-31T06:17:39;2.20;;;1.27;;
75459;SDS011;64039;53.060;9.342;2023-07-31T06:20:06;1.77;;;1.20;;
75459;SDS011;64039;53.060;9.342;2023-07-31T06:22:32;5.35;;;1.98;;
75459;SDS011;64039;53.060;9.342;2023-07-31T06:24:58;2.25;;;1.65;;
75459;SDS011;64039;53.060;9.342;2023-07-31T06:27:23;2.20;;;1.77;;
75459;SDS011;64039;53.060;9.342;2023-07-31T06:29:49;2.20;;;1.63;;
75459;SDS011;64039;53.060;9.342;2023-07-31T06:32:14;1.15;;;1.05;;
75459;SDS011;64039;53.060;9.342;2023-07-31T06:34:40;1.25;;;1.05;;
75459;SDS011;64039;53.060;9.342;2023-07-31T06:37:05;2.72;;;1.58;;
75459;SDS011;64039;53.060;9.342;2023-07-31T06:39:31;1.95;;;1.30;;
75459;SDS011;64039;53.060;9.342;2023-07-31T06:41:56;2.65;;;1.75;;
75459;SDS011;64039;53.060;9.342;2023-07-31T06:44:22;23.52;;;17.55;;
75459;SDS011;64039;53.060;9.342;2023-07-31T06:46:47;15.93;;;11.00;;
75459;SDS011;64039;53.060;9.342;2023-07-31T06:49:13;2.55;;;1.88;;
75459;SDS011;64039;53.060;9.342;2023-07-31T06:51:41;3.53;;;2.45;;
75459;SDS011;64039;53.060;9.342;2023-07-31T06:54:07;1.55;;;1.00;;
75459;SDS011;64039;53.060;9.342;2023-07-31T06:56:33;1.95;;;1.17;;
75459;SDS011;64039;53.060;9.342;2023-07-31T06:58:58;4.15;;;2.60;;
75459;SDS011;64039;53.060;9.342;2023-07-31T07:01:24;1.90;;;1.00;;
75459;SDS011;64039;53.060;9.342;2023-07-31T07:03:49;2.40;;;1.63;;
75459;SDS011;64039;53.060;9.342;2023-07-31T07:06:18;1.10;;;0.90;;
75459;SDS011;64039;53.060;9.342;2023-07-31T07:08:44;1.25;;;0.70;;
75459;SDS011;64039;53.060;9.342;2023-07-31T07:11:10;1.77;;;1.00;;
75459;SDS011;64039;53.060;9.342;2023-07-31T07:13:35;0.98;;;0.75;;
75459;SDS011;64039;53.060;9.342;2023-07-31T07:16:00;1.40;;;0.85;;
75459;SDS011;64039;53.060;9.342;2023-07-31T07:18:26;1.20;;;0.70;;
75459;SDS011;64039;53.060;9.342;2023-07-31T07:20:52;1.88;;;1.30;;
75459;SDS011;64039;53.060;9.342;2023-07-31T07:23:19;0.63;;;0.50;;
75459;SDS011;64039;53.060;9.342;2023-07-31T07:25:45;1.45;;;0.60;;
75459;SDS011;64039;53.060;9.342;2023-07-31T07:28:11;2.92;;;1.48;;
75459;SDS011;64039;53.060;9.342;2023-07-31T07:30:36;0.70;;;0.55;;
75459;SDS011;64039;53.060;9.342;2023-07-31T07:33:02;1.02;;;0.40;;
75459;SDS011;64039;53.060;9.342;2023-07-31T07:35:28;0.55;;;0.32;;
75459;SDS011;64039;53.060;9.342;2023-07-31T07:37:53;1.50;;;0.57;;
75459;SDS011;64039;53.060;9.342;2023-07-31T07:40:20;1.10;;;0.60;;
75459;SDS011;64039;53.060;9.342;2023-07-31T07:42:46;1.85;;;0.50;;
75459;SDS011;64039;53.060;9.342;2023-07-31T07:45:11;2.03;;;0.93;;
75459;SDS011;64039;53.060;9.342;2023-07-31T07:47:38;2.45;;;0.57;;
75459;SDS011;64039;53.060;9.342;2023-07-31T07:50:05;1.73;;;0.90;;
75459;SDS011;64039;53.060;9.342;2023-07-31T07:52:31;4.03;;;0.95;;
75459;SDS011;64039;53.060;9.342;2023-07-31T07:54:57;2.28;;;0.80;;
75459;SDS011;64039;53.060;9.342;2023-07-31T07:57:22;1.50;;;0.80;;
75459;SDS011;64039;53.060;9.342;2023-07-31T07:59:47;1.80;;;1.00;;
75459;SDS011;64039;53.060;9.342;2023-07-31T08:02:13;1.73;;;0.98;;
75459;SDS011;64039;53.060;9.342;2023-07-31T08:04:38;2.08;;;1.27;;
75459;SDS011;64039;53.060;9.342;2023-07-31T08:07:04;3.20;;;1.55;;
75459;SDS011;64039;53.060;9.342;2023-07-31T08:09:29;3.75;;;1.70;;
75459;SDS011;64039;53.060;9.342;2023-07-31T08:11:55;4.22;;;1.83;;
75459;SDS011;64039;53.060;9.342;2023-07-31T08:14:26;6.10;;;1.98;;
75459;SDS011;64039;53.060;9.342;2023-07-31T08:16:52;3.75;;;2.13;;
75459;SDS011;64039;53.060;9.342;2023-07-31T08:19:18;5.10;;;3.00;;
75459;SDS011;64039;53.060;9.342;2023-07-31T08:21:43;5.93;;;2.83;;
75459;SDS011;64039;53.060;9.342;2023-07-31T08:24:09;6.78;;;3.28;;
75459;SDS011;64039;53.060;9.342;2023-07-31T08:26:34;8.27;;;3.58;;
75459;SDS011;64039;53.060;9.342;2023-07-31T08:29:00;9.75;;;3.90;;
75459;SDS011;64039;53.060;9.342;2023-07-31T08:31:25;7.93;;;4.30;;
75459;SDS011;64039;53.060;9.342;2023-07-31T08:33:52;9.77;;;4.20;;
75459;SDS011;64039;53.060;9.342;2023-07-31T08:36:17;9.80;;;4.75;;
75459;SDS011;64039;53.060;9.342;2023-07-31T08:38:43;9.68;;;4.47;;
75459;SDS011;64039;53.060;9.342;2023-07-31T08:41:10;11.93;;;5.13;;
75459;SDS011;64039;53.060;9.342;2023-07-31T08:43:35;13.63;;;5.47;;
75459;SDS011;64039;53.060;9.342;2023-07-31T08:46:02;13.27;;;5.30;;
75459;SDS011;64039;53.060;9.342;2023-07-31T08:48:28;11.02;;;5.35;;
75459;SDS011;64039;53.060;9.342;2023-07-31T08:50:54;12.32;;;5.70;;
75459;SDS011;64039;53.060;9.342;2023-07-31T08:53:20;9.55;;;5.10;;
75459;SDS011;64039;53.060;9.342;2023-07-31T08:55:46;12.63;;;5.70;;
75459;SDS011;64039;53.060;9.342;2023-07-31T08:58:12;12.77;;;5.70;;
75459;SDS011;64039;53.060;9.342;2023-07-31T09:00:39;12.30;;;6.13;;
75459;SDS011;64039;53.060;9.342;2023-07-31T09:03:09;12.05;;;5.85;;
75459;SDS011;64039;53.060;9.342;2023-07-31T09:05:39;14.05;;;5.70;;
75459;SDS011;64039;53.060;9.342;2023-07-31T09:08:10;14.33;;;5.67;;
75459;SDS011;64039;53.060;9.342;2023-07-31T09:10:41;15.35;;;5.90;;
75459;SDS011;64039;53.060;9.342;2023-07-31T09:13:07;14.93;;;6.60;;
75459;SDS011;64039;53.060;9.342;2023-07-31T09:15:33;16.77;;;6.05;;
75459;SDS011;64039;53.060;9.342;2023-07-31T09:18:01;14.70;;;6.05;;
75459;SDS011;64039;53.060;9.342;2023-07-31T09:20:27;13.77;;;5.75;;
75459;SDS011;64039;53.060;9.342;2023-07-31T09:22:53;10.65;;;5.85;;
75459;SDS011;64039;53.060;9.342;2023-07-31T09:28:05;19.08;;;7.00;;
75459;SDS011;64039;53.060;9.342;2023-07-31T09:30:43;13.07;;;6.60;;
75459;SDS011;64039;53.060;9.342;2023-07-31T09:33:13;14.57;;;5.90;;
75459;SDS011;64039;53.060;9.342;2023-07-31T09:35:38;15.18;;;6.35;;
75459;SDS011;64039;53.060;9.342;2023-07-31T09:38:06;13.20;;;5.65;;
75459;SDS011;64039;53.060;9.342;2023-07-31T09:40:37;15.98;;;5.43;;
75459;SDS011;64039;53.060;9.342;2023-07-31T09:43:04;10.73;;;5.18;;
75459;SDS011;64039;53.060;9.342;2023-07-31T09:45:38;14.07;;;5.07;;
75459;SDS011;64039;53.060;9.342;2023-07-31T09:48:11;13.68;;;5.40;;
75459;SDS011;64039;53.060;9.342;2023-07-31T09:50:43;13.65;;;4.90;;
75459;SDS011;64039;53.060;9.342;2023-07-31T09:53:13;11.55;;;4.55;;
75459;SDS011;64039;53.060;9.342;2023-07-31T09:55:40;9.10;;;4.20;;
75459;SDS011;64039;53.060;9.342;2023-07-31T09:58:08;10.98;;;4.05;;
75459;SDS011;64039;53.060;9.342;2023-07-31T10:00:35;10.93;;;4.30;;
75459;SDS011;64039;53.060;9.342;2023-07-31T10:03:02;10.25;;;4.03;;
75459;SDS011;64039;53.060;9.342;2023-07-31T10:05:45;12.07;;;4.25;;
75459;SDS011;64039;53.060;9.342;2023-07-31T10:08:16;8.15;;;3.70;;
75459;SDS011;64039;53.060;9.342;2023-07-31T10:10:45;8.13;;;3.40;;
75459;SDS011;64039;53.060;9.342;2023-07-31T10:13:11;9.23;;;3.55;;
75459;SDS011;64039;53.060;9.342;2023-07-31T10:15:38;8.85;;;3.30;;
75459;SDS011;64039;53.060;9.342;2023-07-31T10:18:05;8.80;;;3.33;;
75459;SDS011;64039;53.060;9.342;2023-07-31T10:20:31;7.10;;;3.40;;
75459;SDS011;64039;53.060;9.342;2023-07-31T10:22:57;8.15;;;3.10;;
75459;SDS011;64039;53.060;9.342;2023-07-31T10:25:24;7.78;;;3.28;;
75459;SDS011;64039;53.060;9.342;2023-07-31T10:27:52;4.03;;;2.78;;
75459;SDS011;64039;53.060;9.342;2023-07-31T10:30:20;6.25;;;3.10;;
75459;SDS011;64039;53.060;9.342;2023-07-31T10:32:50;8.48;;;3.00;;
75459;SDS011;64039;53.060;9.342;2023-07-31T10:35:17;6.80;;;3.38;;
75459;SDS011;64039;53.060;9.342;2023-07-31T10:37:43;7.13;;;2.92;;
75459;SDS011;64039;53.060;9.342;2023-07-31T10:40:18;6.13;;;2.60;;
75459;SDS011;64039;53.060;9.342;2023-07-31T10:42:56;6.15;;;2.78;;
75459;SDS011;64039;53.060;9.342;2023-07-31T10:50:51;5.95;;;3.10;;
75459;SDS011;64039;53.060;9.342;2023-07-31T10:55:49;5.70;;;2.38;;
75459;SDS011;64039;53.060;9.342;2023-07-31T10:58:20;4.00;;;2.10;;
75459;SDS011;64039;53.060;9.342;2023-07-31T11:00:46;3.20;;;1.85;;
75459;SDS011;64039;53.060;9.342;2023-07-31T11:03:15;6.97;;;2.92;;
75459;SDS011;64039;53.060;9.342;2023-07-31T11:08:23;5.18;;;1.90;;
75459;SDS011;64039;53.060;9.342;2023-07-31T11:15:53;3.42;;;1.70;;
75459;SDS011;64039;53.060;9.342;2023-07-31T11:18:19;4.72;;;2.00;;
75459;SDS011;64039;53.060;9.342;2023-07-31T11:20:45;2.03;;;1.52;;
75459;SDS011;64039;53.060;9.342;2023-07-31T11:23:11;4.07;;;1.55;;
75459;SDS011;64039;53.060;9.342;2023-07-31T11:25:37;2.40;;;1.65;;
75459;SDS011;64039;53.060;9.342;2023-07-31T11:28:10;4.10;;;1.48;;
75459;SDS011;64039;53.060;9.342;2023-07-31T11:30:38;2.05;;;1.35;;
75459;SDS011;64039;53.060;9.342;2023-07-31T11:33:06;2.47;;;1.40;;
75459;SDS011;64039;53.060;9.342;2023-07-31T11:35:32;3.03;;;1.30;;
75459;SDS011;64039;53.060;9.342;2023-07-31T11:37:59;3.47;;;1.30;;
75459;SDS011;64039;53.060;9.342;2023-07-31T11:40:25;2.85;;;2.00;;
75459;SDS011;64039;53.060;9.342;2023-07-31T11:42:57;1.73;;;1.20;;
75459;SDS011;64039;53.060;9.342;2023-07-31T11:45:27;1.88;;;1.10;;
75459;SDS011;64039;53.060;9.342;2023-07-31T11:47:56;1.80;;;1.27;;
75459;SDS011;64039;53.060;9.342;2023-07-31T11:50:22;1.70;;;1.15;;
75459;SDS011;64039;53.060;9.342;2023-07-31T11:52:56;2.58;;;1.33;;
75459;SDS011;64039;53.060;9.342;2023-07-31T11:57:50;0.85;;;0.80;;
75459;SDS011;64039;53.060;9.342;2023-07-31T12:00:16;0.98;;;0.80;;
75459;SDS011;64039;53.060;9.342;2023-07-31T12:02:43;2.00;;;0.80;;
75459;SDS011;64039;53.060;9.342;2023-07-31T12:05:12;1.45;;;1.05;;
75459;SDS011;64039;53.060;9.342;2023-07-31T12:07:49;1.52;;;0.90;;
75459;SDS011;64039;53.060;9.342;2023-07-31T12:10:30;3.17;;;0.90;;
75459;SDS011;64039;53.060;9.342;2023-07-31T12:15:44;1.10;;;0.82;;
75459;SDS011;64039;53.060;9.342;2023-07-31T12:18:10;1.17;;;0.90;;
75459;SDS011;64039;53.060;9.342;2023-07-31T12:20:41;1.17;;;0.70;;
75459;SDS011;64039;53.060;9.342;2023-07-31T12:23:12;1.40;;;0.70;;
75459;SDS011;64039;53.060;9.342;2023-07-31T12:25:39;0.85;;;0.80;;
75459;SDS011;64039;53.060;9.342;2023-07-31T12:28:04;1.40;;;0.93;;
75459;SDS011;64039;53.060;9.342;2023-07-31T12:30:33;1.23;;;0.90;;
75459;SDS011;64039;53.060;9.342;2023-07-31T12:33:03;1.00;;;0.90;;
75459;SDS011;64039;53.060;9.342;2023-07-31T12:35:38;0.80;;;0.80;;
75459;SDS011;64039;53.060;9.342;2023-07-31T12:38:07;2.00;;;0.77;;
75459;SDS011;64039;53.060;9.342;2023-07-31T12:40:32;2.45;;;0.77;;
75459;SDS011;64039;53.060;9.342;2023-07-31T12:43:00;1.10;;;0.70;;
75459;SDS011;64039;53.060;9.342;2023-07-31T12:45:27;1.70;;;0.90;;
75459;SDS011;64039;53.060;9.342;2023-07-31T12:47:53;3.90;;;0.80;;
75459;SDS011;64039;53.060;9.342;2023-07-31T12:50:18;1.02;;;0.70;;
75459;SDS011;64039;53.060;9.342;2023-07-31T12:52:44;2.05;;;0.70;;
75459;SDS011;64039;53.060;9.342;2023-07-31T12:55:09;0.90;;;0.80;;
75459;SDS011;64039;53.060;9.342;2023-07-31T12:57:36;1.25;;;0.90;;
75459;SDS011;64039;53.060;9.342;2023-07-31T13:00:02;1.00;;;0.77;;
75459;SDS011;64039;53.060;9.342;2023-07-31T13:02:28;1.98;;;0.90;;
75459;SDS011;64039;53.060;9.342;2023-07-31T13:04:53;1.13;;;1.02;;
75459;SDS011;64039;53.060;9.342;2023-07-31T13:07:19;2.80;;;1.25;;
75459;SDS011;64039;53.060;9.342;2023-07-31T13:09:45;2.25;;;1.20;;
75459;SDS011;64039;53.060;9.342;2023-07-31T13:12:10;1.67;;;1.30;;
75459;SDS011;64039;53.060;9.342;2023-07-31T13:14:36;1.73;;;1.20;;
75459;SDS011;64039;53.060;9.342;2023-07-31T13:17:01;2.47;;;1.40;;
75459;SDS011;64039;53.060;9.342;2023-07-31T13:19:27;5.75;;;1.33;;
75459;SDS011;64039;53.060;9.342;2023-07-31T13:21:52;2.28;;;1.58;;
75459;SDS011;64039;53.060;9.342;2023-07-31T13:24:18;1.50;;;1.40;;
75459;SDS011;64039;53.060;9.342;2023-07-31T13:26:43;2.17;;;1.58;;
75459;SDS011;64039;53.060;9.342;2023-07-31T13:29:09;2.17;;;1.65;;
75459;SDS011;64039;53.060;9.342;2023-07-31T13:31:35;1.77;;;1.20;;
75459;SDS011;64039;53.060;9.342;2023-07-31T13:34:01;2.75;;;1.50;;
75459;SDS011;64039;53.060;9.342;2023-07-31T13:36:26;2.03;;;1.40;;
75459;SDS011;64039;53.060;9.342;2023-07-31T13:38:52;2.92;;;1.48;;
75459;SDS011;64039;53.060;9.342;2023-07-31T13:41:17;2.63;;;1.73;;
75459;SDS011;64039;53.060;9.342;2023-07-31T13:43:43;2.00;;;1.60;;
75459;SDS011;64039;53.060;9.342;2023-07-31T13:46:08;1.67;;;1.23;;
75459;SDS011;64039;53.060;9.342;2023-07-31T13:48:35;2.22;;;1.65;;
75459;SDS011;64039;53.060;9.342;2023-07-31T13:51:01;3.38;;;1.65;;
75459;SDS011;64039;53.060;9.342;2023-07-31T13:53:27;1.95;;;1.58;;
75459;SDS011;64039;53.060;9.342;2023-07-31T13:55:52;1.45;;;1.35;;
75459;SDS011;64039;53.060;9.342;2023-07-31T13:58:18;2.30;;;1.70;;
75459;SDS011;64039;53.060;9.342;2023-07-31T14:00:43;2.03;;;1.60;;
75459;SDS011;64039;53.060;9.342;2023-07-31T14:03:09;3.45;;;2.00;;
75459;SDS011;64039;53.060;9.342;2023-07-31T14:05:34;5.00;;;1.83;;
75459;SDS011;64039;53.060;9.342;2023-07-31T14:08:00;4.38;;;1.83;;
75459;SDS011;64039;53.060;9.342;2023-07-31T14:10:26;2.03;;;1.80;;
75459;SDS011;64039;53.060;9.342;2023-07-31T14:12:51;3.00;;;2.10;;
75459;SDS011;64039;53.060;9.342;2023-07-31T14:15:16;3.25;;;1.83;;
75459;SDS011;64039;53.060;9.342;2023-07-31T14:17:42;2.45;;;1.83;;
75459;SDS011;64039;53.060;9.342;2023-07-31T14:20:08;2.17;;;1.85;;
75459;SDS011;64039;53.060;9.342;2023-07-31T14:22:34;2.70;;;2.00;;
75459;SDS011;64039;53.060;9.342;2023-07-31T14:24:59;3.60;;;1.90;;
75459;SDS011;64039;53.060;9.342;2023-07-31T14:27:25;4.50;;;2.13;;
75459;SDS011;64039;53.060;9.342;2023-07-31T14:29:51;2.13;;;1.92;;
75459;SDS011;64039;53.060;9.342;2023-07-31T14:32:16;2.83;;;2.10;;
75459;SDS011;64039;53.060;9.342;2023-07-31T14:34:42;2.53;;;2.15;;
75459;SDS011;64039;53.060;9.342;2023-07-31T14:37:07;2.72;;;2.20;;
75459;SDS011;64039;53.060;9.342;2023-07-31T14:39:33;3.80;;;2.10;;
75459;SDS011;64039;53.060;9.342;2023-07-31T14:41:58;3.35;;;2.08;;
75459;SDS011;64039;53.060;9.342;2023-07-31T14:44:24;2.60;;;2.00;;
75459;SDS011;64039;53.060;9.342;2023-07-31T14:46:49;4.93;;;1.80;;
75459;SDS011;64039;53.060;9.342;2023-07-31T14:49:15;2.10;;;1.88;;
75459;SDS011;64039;53.060;9.342;2023-07-31T14:51:40;6.18;;;2.10;;
75459;SDS011;64039;53.060;9.342;2023-07-31T14:54:06;2.75;;;2.25;;
75459;SDS011;64039;53.060;9.342;2023-07-31T14:56:31;4.72;;;2.75;;
75459;SDS011;64039;53.060;9.342;2023-07-31T14:58:57;3.30;;;2.33;;
75459;SDS011;64039;53.060;9.342;2023-07-31T15:01:23;2.60;;;2.08;;
75459;SDS011;64039;53.060;9.342;2023-07-31T15:03:48;2.90;;;2.17;;
75459;SDS011;64039;53.060;9.342;2023-07-31T15:06:14;4.78;;;2.17;;
75459;SDS011;64039;53.060;9.342;2023-07-31T15:08:39;2.20;;;2.00;;
75459;SDS011;64039;53.060;9.342;2023-07-31T15:11:06;3.13;;;2.42;;